sensor_id;sensor_type;location;lat;lon;timestamp;temperature;humidity
240;DHT22;104;53.590;10.004;2022-12-29T00:01:29;3.00;96.80
240;DHT22;104;53.590;10.004;2022-12-29T00:06:26;3.10;96.80
240;DHT22;104;53.590;10.004;2022-12-29T00:11:22;3.10;96.80
240;DHT22;104;53.590;10.004;2022-12-29T00:13:50;3.20;96.80
240;DHT22;104;53.590;10.004;2022-12-29T00:16:35;3.20;96.80
240;DHT22;104;53.590;10.004;2022-12-29T00:21:32;3.20;96.80
240;DHT22;104;53.590;10.004;2022-12-29T00:27:11;3.20;96.80
240;DHT22;104;53.590;10.004;2022-12-29T00:29:57;3.20;96.80
240;DHT22;104;53.590;10.004;2022-12-29T00:35:29;3.20;96.80
240;DHT22;104;53.590;10.004;2022-12-29T00:43:31;3.30;96.80
240;DHT22;104;53.590;10.004;2022-12-29T00:46:15;3.30;96.80
240;DHT22;104;53.590;10.004;2022-12-29T00:56:23;3.20;96.80
240;DHT22;104;53.590;10.004;2022-12-29T00:58:50;3.20;96.80
240;DHT22;104;53.590;10.004;2022-12-29T01:01:17;3.20;96.80
240;DHT22;104;53.590;10.004;2022-12-29T01:06:12;3.20;96.80
240;DHT22;104;53.590;10.004;2022-12-29T01:11:09;3.20;96.80
240;DHT22;104;53.590;10.004;2022-12-29T01:13:36;3.20;96.80
240;DHT22;104;53.590;10.004;2022-12-29T01:16:05;3.20;96.80
240;DHT22;104;53.590;10.004;2022-12-29T01:18:32;3.20;96.80
240;DHT22;104;53.590;10.004;2022-12-29T01:21:00;3.20;96.80
240;DHT22;104;53.590;10.004;2022-12-29T01:23:28;3.20;96.80
240;DHT22;104;53.590;10.004;2022-12-29T01:28:24;3.20;96.80
240;DHT22;104;53.590;10.004;2022-12-29T01:33:18;3.30;96.80
240;DHT22;104;53.590;10.004;2022-12-29T01:35:45;3.30;96.80
240;DHT22;104;53.590;10.004;2022-12-29T01:40:44;3.30;96.80
240;DHT22;104;53.590;10.004;2022-12-29T01:43:13;3.30;96.80
240;DHT22;104;53.590;10.004;2022-12-29T01:45:45;3.30;96.80
240;DHT22;104;53.590;10.004;2022-12-29T01:48:15;3.30;96.80
240;DHT22;104;53.590;10.004;2022-12-29T01:50:46;3.30;96.80
240;DHT22;104;53.590;10.004;2022-12-29T01:53:19;3.30;96.80
240;DHT22;104;53.590;10.004;2022-12-29T01:55:49;3.30;96.80
240;DHT22;104;53.590;10.004;2022-12-29T01:58:18;3.20;96.80
240;DHT22;104;53.590;10.004;2022-12-29T02:00:47;3.30;96.80
240;DHT22;104;53.590;10.004;2022-12-29T02:03:15;3.30;96.80
240;DHT22;104;53.590;10.004;2022-12-29T02:05:46;3.30;96.80
240;DHT22;104;53.590;10.004;2022-12-29T02:08:15;3.30;96.80
240;DHT22;104;53.590;10.004;2022-12-29T02:10:43;3.40;96.80
240;DHT22;104;53.590;10.004;2022-12-29T02:15:51;3.40;96.80
240;DHT22;104;53.590;10.004;2022-12-29T02:27:46;3.40;96.80
240;DHT22;104;53.590;10.004;2022-12-29T02:33:37;3.30;96.80
240;DHT22;104;53.590;10.004;2022-12-29T02:36:12;3.30;96.80
240;DHT22;104;53.590;10.004;2022-12-29T02:38:55;3.20;96.80
240;DHT22;104;53.590;10.004;2022-12-29T02:44:02;3.00;96.80
240;DHT22;104;53.590;10.004;2022-12-29T02:49:09;3.10;96.80
240;DHT22;104;53.590;10.004;2022-12-29T02:51:42;3.10;96.80
240;DHT22;104;53.590;10.004;2022-12-29T02:54:11;3.20;96.80
240;DHT22;104;53.590;10.004;2022-12-29T02:59:23;3.40;96.80
240;DHT22;104;53.590;10.004;2022-12-29T03:02:16;3.40;96.80
240;DHT22;104;53.590;10.004;2022-12-29T03:05:08;3.50;96.80
240;DHT22;104;53.590;10.004;2022-12-29T03:10:19;3.60;96.80
240;DHT22;104;53.590;10.004;2022-12-29T03:12:51;3.60;96.80
240;DHT22;104;53.590;10.004;2022-12-29T03:15:42;3.60;96.80
240;DHT22;104;53.590;10.004;2022-12-29T03:18:36;3.60;96.80
240;DHT22;104;53.590;10.004;2022-12-29T03:21:09;3.60;96.80
240;DHT22;104;53.590;10.004;2022-12-29T03:23:39;3.50;96.80
240;DHT22;104;53.590;10.004;2022-12-29T03:26:10;3.50;96.80
240;DHT22;104;53.590;10.004;2022-12-29T03:28:40;3.60;96.80
240;DHT22;104;53.590;10.004;2022-12-29T03:31:09;3.60;96.80
240;DHT22;104;53.590;10.004;2022-12-29T03:33:38;3.60;96.80
240;DHT22;104;53.590;10.004;2022-12-29T03:36:11;3.70;96.80
240;DHT22;104;53.590;10.004;2022-12-29T03:38:45;3.70;96.80
240;DHT22;104;53.590;10.004;2022-12-29T03:41:18;3.70;96.80
240;DHT22;104;53.590;10.004;2022-12-29T03:43:47;3.70;96.80
240;DHT22;104;53.590;10.004;2022-12-29T04:00:59;3.80;96.80
240;DHT22;104;53.590;10.004;2022-12-29T04:13:19;3.80;96.80
240;DHT22;104;53.590;10.004;2022-12-29T04:15:46;3.80;96.80
240;DHT22;104;53.590;10.004;2022-12-29T04:20:41;3.90;96.80
240;DHT22;104;53.590;10.004;2022-12-29T04:23:30;3.90;96.80
240;DHT22;104;53.590;10.004;2022-12-29T04:25:58;3.90;96.80
240;DHT22;104;53.590;10.004;2022-12-29T04:28:25;3.90;96.80
240;DHT22;104;53.590;10.004;2022-12-29T04:30:53;3.90;96.80
240;DHT22;104;53.590;10.004;2022-12-29T04:33:20;3.90;96.80
240;DHT22;104;53.590;10.004;2022-12-29T04:35:48;3.90;96.80
240;DHT22;104;53.590;10.004;2022-12-29T04:38:15;3.90;96.80
240;DHT22;104;53.590;10.004;2022-12-29T04:43:12;3.90;96.80
240;DHT22;104;53.590;10.004;2022-12-29T04:45:43;3.90;96.80
240;DHT22;104;53.590;10.004;2022-12-29T04:48:10;3.90;96.80
240;DHT22;104;53.590;10.004;2022-12-29T04:50:37;3.90;96.80
240;DHT22;104;53.590;10.004;2022-12-29T04:55:31;3.90;96.80
240;DHT22;104;53.590;10.004;2022-12-29T05:10:16;4.10;96.80
240;DHT22;104;53.590;10.004;2022-12-29T05:22:36;4.20;96.80
240;DHT22;104;53.590;10.004;2022-12-29T05:29:58;4.50;96.80
240;DHT22;104;53.590;10.004;2022-12-29T05:32:27;4.50;96.80
240;DHT22;104;53.590;10.004;2022-12-29T05:34:53;4.50;96.80
240;DHT22;104;53.590;10.004;2022-12-29T05:37:21;4.40;96.80
240;DHT22;104;53.590;10.004;2022-12-29T05:44:42;4.20;96.80
240;DHT22;104;53.590;10.004;2022-12-29T05:47:10;4.20;96.80
240;DHT22;104;53.590;10.004;2022-12-29T06:11:48;3.60;96.80
240;DHT22;104;53.590;10.004;2022-12-29T06:31:30;4.10;96.80
240;DHT22;104;53.590;10.004;2022-12-29T06:48:45;3.60;96.80
240;DHT22;104;53.590;10.004;2022-12-29T06:51:12;3.50;96.80
240;DHT22;104;53.590;10.004;2022-12-29T07:01:04;3.40;96.80
240;DHT22;104;53.590;10.004;2022-12-29T07:15:50;3.40;96.80
240;DHT22;104;53.590;10.004;2022-12-29T07:18:17;3.40;96.80
240;DHT22;104;53.590;10.004;2022-12-29T07:20:44;3.40;96.80
240;DHT22;104;53.590;10.004;2022-12-29T07:23:11;3.40;96.80
240;DHT22;104;53.590;10.004;2022-12-29T07:25:38;3.40;96.80
240;DHT22;104;53.590;10.004;2022-12-29T07:30:36;3.30;96.80
240;DHT22;104;53.590;10.004;2022-12-29T08:17:41;3.70;96.80
240;DHT22;104;53.590;10.004;2022-12-29T08:22:36;3.80;96.80
240;DHT22;104;53.590;10.004;2022-12-29T08:25:05;3.90;96.80
240;DHT22;104;53.590;10.004;2022-12-29T08:27:32;4.00;96.80
240;DHT22;104;53.590;10.004;2022-12-29T08:29:59;4.00;96.80
240;DHT22;104;53.590;10.004;2022-12-29T08:32:27;4.00;96.80
240;DHT22;104;53.590;10.004;2022-12-29T08:34:54;4.20;96.80
240;DHT22;104;53.590;10.004;2022-12-29T08:39:49;4.40;96.80
240;DHT22;104;53.590;10.004;2022-12-29T08:42:18;4.40;96.80
240;DHT22;104;53.590;10.004;2022-12-29T08:44:45;4.50;96.80
240;DHT22;104;53.590;10.004;2022-12-29T08:52:07;4.80;96.80
240;DHT22;104;53.590;10.004;2022-12-29T09:09:20;5.00;96.80
240;DHT22;104;53.590;10.004;2022-12-29T09:14:15;5.20;96.80
240;DHT22;104;53.590;10.004;2022-12-29T09:16:43;5.20;96.80
240;DHT22;104;53.590;10.004;2022-12-29T09:19:28;5.30;96.80
240;DHT22;104;53.590;10.004;2022-12-29T09:31:45;5.50;96.50
240;DHT22;104;53.590;10.004;2022-12-29T09:41:39;5.90;95.00
240;DHT22;104;53.590;10.004;2022-12-29T09:44:15;5.90;95.10
240;DHT22;104;53.590;10.004;2022-12-29T09:46:47;6.00;94.40
240;DHT22;104;53.590;10.004;2022-12-29T09:49:22;6.00;94.30
240;DHT22;104;53.590;10.004;2022-12-29T09:51:54;6.00;94.30
240;DHT22;104;53.590;10.004;2022-12-29T09:54:30;6.20;94.10
240;DHT22;104;53.590;10.004;2022-12-29T09:56:59;6.20;93.90
240;DHT22;104;53.590;10.004;2022-12-29T09:59:38;6.40;93.70
240;DHT22;104;53.590;10.004;2022-12-29T10:04:43;6.40;93.40
240;DHT22;104;53.590;10.004;2022-12-29T10:07:15;6.30;93.50
240;DHT22;104;53.590;10.004;2022-12-29T10:09:51;6.50;93.70
240;DHT22;104;53.590;10.004;2022-12-29T10:15:00;6.90;92.60
240;DHT22;104;53.590;10.004;2022-12-29T10:27:54;7.40;90.70
240;DHT22;104;53.590;10.004;2022-12-29T10:30:23;7.40;90.30
240;DHT22;104;53.590;10.004;2022-12-29T10:35:22;7.40;90.70
240;DHT22;104;53.590;10.004;2022-12-29T10:37:53;7.30;90.90
240;DHT22;104;53.590;10.004;2022-12-29T10:40:26;7.30;91.00
240;DHT22;104;53.590;10.004;2022-12-29T10:42:55;7.30;91.40
240;DHT22;104;53.590;10.004;2022-12-29T10:45:27;7.20;91.80
240;DHT22;104;53.590;10.004;2022-12-29T10:50:27;7.30;92.10
240;DHT22;104;53.590;10.004;2022-12-29T10:52:57;7.40;92.00
240;DHT22;104;53.590;10.004;2022-12-29T10:55:28;7.50;91.50
240;DHT22;104;53.590;10.004;2022-12-29T10:58:01;7.60;90.90
240;DHT22;104;53.590;10.004;2022-12-29T11:00:30;7.60;90.70
240;DHT22;104;53.590;10.004;2022-12-29T11:03:30;7.60;90.70
240;DHT22;104;53.590;10.004;2022-12-29T11:06:08;7.60;90.50
240;DHT22;104;53.590;10.004;2022-12-29T11:08:38;7.60;90.70
240;DHT22;104;53.590;10.004;2022-12-29T11:11:08;7.70;90.40
240;DHT22;104;53.590;10.004;2022-12-29T11:13:46;7.70;90.40
240;DHT22;104;53.590;10.004;2022-12-29T11:18:46;7.70;90.50
240;DHT22;104;53.590;10.004;2022-12-29T11:21:27;7.60;90.70
240;DHT22;104;53.590;10.004;2022-12-29T11:23:56;7.70;91.00
240;DHT22;104;53.590;10.004;2022-12-29T11:29:23;7.90;90.70
240;DHT22;104;53.590;10.004;2022-12-29T11:34:22;8.00;90.40
240;DHT22;104;53.590;10.004;2022-12-29T11:36:53;8.10;89.70
240;DHT22;104;53.590;10.004;2022-12-29T11:39:33;8.20;89.70
240;DHT22;104;53.590;10.004;2022-12-29T11:42:01;8.20;89.60
240;DHT22;104;53.590;10.004;2022-12-29T11:44:36;8.20;89.80
240;DHT22;104;53.590;10.004;2022-12-29T11:54:29;8.90;88.70
240;DHT22;104;53.590;10.004;2022-12-29T11:56:58;9.00;88.00
240;DHT22;104;53.590;10.004;2022-12-29T11:59:42;9.00;87.80
240;DHT22;104;53.590;10.004;2022-12-29T12:02:35;9.10;87.10
240;DHT22;104;53.590;10.004;2022-12-29T12:05:18;8.90;87.80
240;DHT22;104;53.590;10.004;2022-12-29T12:07:49;8.90;88.10
240;DHT22;104;53.590;10.004;2022-12-29T12:10:23;8.90;88.50
240;DHT22;104;53.590;10.004;2022-12-29T12:12:58;8.90;88.60
240;DHT22;104;53.590;10.004;2022-12-29T12:15:31;8.90;88.60
240;DHT22;104;53.590;10.004;2022-12-29T12:18:05;8.90;89.50
240;DHT22;104;53.590;10.004;2022-12-29T12:20:45;8.90;89.50
240;DHT22;104;53.590;10.004;2022-12-29T12:23:36;9.10;89.20
240;DHT22;104;53.590;10.004;2022-12-29T12:26:10;9.20;88.90
240;DHT22;104;53.590;10.004;2022-12-29T12:28:46;9.10;88.90
240;DHT22;104;53.590;10.004;2022-12-29T12:31:27;9.10;89.10
240;DHT22;104;53.590;10.004;2022-12-29T12:36:53;9.30;88.70
240;DHT22;104;53.590;10.004;2022-12-29T12:39:27;9.40;88.70
240;DHT22;104;53.590;10.004;2022-12-29T12:42:08;9.40;88.60
240;DHT22;104;53.590;10.004;2022-12-29T12:44:45;9.40;88.70
240;DHT22;104;53.590;10.004;2022-12-29T12:47:39;9.40;88.90
240;DHT22;104;53.590;10.004;2022-12-29T12:53:01;9.40;89.20
240;DHT22;104;53.590;10.004;2022-12-29T12:55:41;9.40;89.30
240;DHT22;104;53.590;10.004;2022-12-29T12:58:16;9.40;89.40
240;DHT22;104;53.590;10.004;2022-12-29T13:00:55;9.30;89.90
240;DHT22;104;53.590;10.004;2022-12-29T13:06:13;9.20;90.10
240;DHT22;104;53.590;10.004;2022-12-29T13:14:02;9.10;90.90
240;DHT22;104;53.590;10.004;2022-12-29T13:16:36;9.10;91.10
240;DHT22;104;53.590;10.004;2022-12-29T13:19:13;9.10;91.20
240;DHT22;104;53.590;10.004;2022-12-29T13:24:23;9.00;91.60
240;DHT22;104;53.590;10.004;2022-12-29T13:26:56;9.00;92.00
240;DHT22;104;53.590;10.004;2022-12-29T13:29:32;9.10;92.20
240;DHT22;104;53.590;10.004;2022-12-29T13:37:11;9.30;91.70
240;DHT22;104;53.590;10.004;2022-12-29T13:42:12;9.20;92.20
240;DHT22;104;53.590;10.004;2022-12-29T13:54:45;8.90;93.70
240;DHT22;104;53.590;10.004;2022-12-29T14:02:37;8.80;94.40
240;DHT22;104;53.590;10.004;2022-12-29T14:05:27;8.80;94.50
240;DHT22;104;53.590;10.004;2022-12-29T14:07:59;8.70;94.70
240;DHT22;104;53.590;10.004;2022-12-29T14:20:32;8.70;95.30
240;DHT22;104;53.590;10.004;2022-12-29T14:23:01;8.70;95.50
240;DHT22;104;53.590;10.004;2022-12-29T14:26:00;8.70;95.70
240;DHT22;104;53.590;10.004;2022-12-29T14:28:37;8.70;95.80
240;DHT22;104;53.590;10.004;2022-12-29T14:31:05;8.70;96.00
240;DHT22;104;53.590;10.004;2022-12-29T14:33:33;8.70;96.10
240;DHT22;104;53.590;10.004;2022-12-29T14:36:18;8.70;96.20
240;DHT22;104;53.590;10.004;2022-12-29T14:38:46;8.60;96.30
240;DHT22;104;53.590;10.004;2022-12-29T14:41:32;8.50;96.40
240;DHT22;104;53.590;10.004;2022-12-29T14:44:09;8.60;96.40
240;DHT22;104;53.590;10.004;2022-12-29T14:46:44;8.50;96.60
240;DHT22;104;53.590;10.004;2022-12-29T14:49:17;8.50;96.80
240;DHT22;104;53.590;10.004;2022-12-29T14:51:46;8.50;96.80
240;DHT22;104;53.590;10.004;2022-12-29T14:54:49;8.60;96.80
240;DHT22;104;53.590;10.004;2022-12-29T14:57:34;8.70;96.30
240;DHT22;104;53.590;10.004;2022-12-29T15:02:39;8.70;95.70
240;DHT22;104;53.590;10.004;2022-12-29T15:05:23;8.70;95.80
240;DHT22;104;53.590;10.004;2022-12-29T15:07:52;8.70;96.10
240;DHT22;104;53.590;10.004;2022-12-29T15:10:19;8.60;96.30
240;DHT22;104;53.590;10.004;2022-12-29T15:12:53;8.50;96.60
240;DHT22;104;53.590;10.004;2022-12-29T15:15:23;8.40;96.80
240;DHT22;104;53.590;10.004;2022-12-29T15:20:24;8.30;96.80
240;DHT22;104;53.590;10.004;2022-12-29T15:22:54;8.40;96.80
240;DHT22;104;53.590;10.004;2022-12-29T15:25:22;8.40;96.80
240;DHT22;104;53.590;10.004;2022-12-29T15:27:53;8.50;96.80
240;DHT22;104;53.590;10.004;2022-12-29T15:30:21;8.50;96.80
240;DHT22;104;53.590;10.004;2022-12-29T15:32:49;8.50;96.80
240;DHT22;104;53.590;10.004;2022-12-29T15:35:31;8.50;96.80
240;DHT22;104;53.590;10.004;2022-12-29T15:38:00;8.40;96.80
240;DHT22;104;53.590;10.004;2022-12-29T15:40:30;8.40;96.80
240;DHT22;104;53.590;10.004;2022-12-29T15:43:16;8.50;96.80
240;DHT22;104;53.590;10.004;2022-12-29T15:45:49;8.40;96.80
240;DHT22;104;53.590;10.004;2022-12-29T15:48:21;8.40;96.80
240;DHT22;104;53.590;10.004;2022-12-29T15:50:50;8.80;96.80
240;DHT22;104;53.590;10.004;2022-12-29T15:53:21;8.90;96.80
240;DHT22;104;53.590;10.004;2022-12-29T15:55:55;9.00;96.80
240;DHT22;104;53.590;10.004;2022-12-29T15:58:28;9.00;96.80
240;DHT22;104;53.590;10.004;2022-12-29T16:00:57;9.10;96.80
240;DHT22;104;53.590;10.004;2022-12-29T16:03:25;9.10;96.70
240;DHT22;104;53.590;10.004;2022-12-29T16:05:54;9.10;96.60
240;DHT22;104;53.590;10.004;2022-12-29T16:15:58;8.80;96.80
240;DHT22;104;53.590;10.004;2022-12-29T16:25:53;8.60;96.80
240;DHT22;104;53.590;10.004;2022-12-29T16:28:24;8.80;96.80
240;DHT22;104;53.590;10.004;2022-12-29T16:31:03;8.80;96.80
240;DHT22;104;53.590;10.004;2022-12-29T16:33:44;8.80;96.80
240;DHT22;104;53.590;10.004;2022-12-29T16:36:23;8.80;96.80
240;DHT22;104;53.590;10.004;2022-12-29T16:49:16;8.50;96.80
240;DHT22;104;53.590;10.004;2022-12-29T16:56:46;8.40;96.80
240;DHT22;104;53.590;10.004;2022-12-29T17:01:50;8.30;96.80
240;DHT22;104;53.590;10.004;2022-12-29T17:04:17;8.20;96.80
240;DHT22;104;53.590;10.004;2022-12-29T17:09:19;8.10;96.80
240;DHT22;104;53.590;10.004;2022-12-29T17:11:48;8.10;96.80
240;DHT22;104;53.590;10.004;2022-12-29T17:17:05;8.00;96.80
240;DHT22;104;53.590;10.004;2022-12-29T17:19:36;7.90;96.80
240;DHT22;104;53.590;10.004;2022-12-29T17:22:09;7.80;96.80
240;DHT22;104;53.590;10.004;2022-12-29T17:44:24;8.00;96.80
240;DHT22;104;53.590;10.004;2022-12-29T17:54:19;7.90;96.80
240;DHT22;104;53.590;10.004;2022-12-29T17:56:48;7.90;96.80
240;DHT22;104;53.590;10.004;2022-12-29T17:59:16;7.80;96.80
240;DHT22;104;53.590;10.004;2022-12-29T18:01:45;7.80;96.80
240;DHT22;104;53.590;10.004;2022-12-29T18:06:42;7.80;96.80
240;DHT22;104;53.590;10.004;2022-12-29T18:09:10;7.70;96.80
240;DHT22;104;53.590;10.004;2022-12-29T18:11:42;7.80;96.80
240;DHT22;104;53.590;10.004;2022-12-29T18:14:11;7.80;96.80
240;DHT22;104;53.590;10.004;2022-12-29T18:24:02;7.50;96.80
240;DHT22;104;53.590;10.004;2022-12-29T18:26:30;7.50;96.80
240;DHT22;104;53.590;10.004;2022-12-29T18:34:10;7.30;96.80
240;DHT22;104;53.590;10.004;2022-12-29T18:56:21;7.10;96.80
240;DHT22;104;53.590;10.004;2022-12-29T19:01:26;7.20;96.80
240;DHT22;104;53.590;10.004;2022-12-29T19:26:28;7.70;96.80
240;DHT22;104;53.590;10.004;2022-12-29T19:28:58;7.70;96.80
240;DHT22;104;53.590;10.004;2022-12-29T19:31:26;7.80;96.80
240;DHT22;104;53.590;10.004;2022-12-29T22:00:22;7.40;96.80
240;DHT22;104;53.590;10.004;2022-12-29T22:08:36;7.60;96.80
240;DHT22;104;53.590;10.004;2022-12-29T22:11:21;7.60;96.80
240;DHT22;104;53.590;10.004;2022-12-29T22:14:06;7.70;96.80
240;DHT22;104;53.590;10.004;2022-12-29T22:16:49;7.70;96.80
240;DHT22;104;53.590;10.004;2022-12-29T22:36:32;7.60;96.80
